createdAt,value
2018-04-02T00:00:25.361Z,90.76
2018-04-02T00:02:53.605Z,90.17
2018-04-02T00:05:21.861Z,90.06
2018-04-02T00:07:50.107Z,90.01
2018-04-02T00:10:18.358Z,89.98
2018-04-02T00:12:46.605Z,90.28
2018-04-02T00:15:14.880Z,90.46
2018-04-02T00:17:43.189Z,90.42
2018-04-02T00:20:11.449Z,90.56
2018-04-02T00:22:39.687Z,90.45
2018-04-02T00:25:07.958Z,90.97
2018-04-02T00:27:36.216Z,90.80
2018-04-02T00:30:05.225Z,90.80
2018-04-02T00:32:33.487Z,90.75
2018-04-02T00:35:01.732Z,90.68
2018-04-02T00:37:29.990Z,90.60
2018-04-02T00:39:58.242Z,90.38
2018-04-02T00:42:26.495Z,90.71
2018-04-02T00:44:55.515Z,90.72
2018-04-02T00:47:23.774Z,90.29
2018-04-02T00:49:52.017Z,89.97
2018-04-02T00:52:20.279Z,89.80
2018-04-02T00:54:48.522Z,89.98
2018-04-02T00:57:16.778Z,90.28
2018-04-02T00:59:45.024Z,90.21
2018-04-02T01:02:13.349Z,90.17
2018-04-02T01:04:41.596Z,90.86
2018-04-02T01:07:10.622Z,90.57
2018-04-02T01:09:38.875Z,90.75
2018-04-02T01:12:07.125Z,90.33
2018-04-02T01:14:36.145Z,90.58
2018-04-02T01:17:04.403Z,90.20
2018-04-02T01:19:33.414Z,90.46
2018-04-02T01:22:01.667Z,90.54
2018-04-02T01:24:30.683Z,90.48
2018-04-02T01:26:58.938Z,90.86
2018-04-02T01:29:27.951Z,90.73
2018-04-02T01:31:56.226Z,90.86
2018-04-02T01:34:24.485Z,91.12
2018-04-02T01:36:53.504Z,91.25
2018-04-02T01:39:21.761Z,91.20
2018-04-02T01:41:50.021Z,91.03
2018-04-02T01:44:19.042Z,90.98
2018-04-02T01:46:47.294Z,91.14
2018-04-02T01:49:16.322Z,91.06
2018-04-02T01:51:44.568Z,91.40
2018-04-02T01:54:13.589Z,91.30
2018-04-02T01:56:42.770Z,91.47
2018-04-02T01:59:11.026Z,91.33
2018-04-02T02:01:40.050Z,91.39
2018-04-02T02:04:08.323Z,91.55
2018-04-02T02:06:36.565Z,91.52
2018-04-02T02:09:06.508Z,91.88
2018-04-02T02:11:34.765Z,92.30
2018-04-02T02:14:03.799Z,92.31
2018-04-02T02:16:32.061Z,92.10
2018-04-02T02:19:00.325Z,92.19
2018-04-02T02:21:28.579Z,92.26
2018-04-02T02:23:57.608Z,92.19
2018-04-02T02:26:25.861Z,92.23
2018-04-02T02:28:54.886Z,91.86
2018-04-02T02:31:23.132Z,91.97
2018-04-02T02:33:51.390Z,92.20
2018-04-02T02:36:20.406Z,92.27
2018-04-02T02:38:48.659Z,92.29
2018-04-02T02:41:17.682Z,92.25
2018-04-02T02:43:45.938Z,92.31
2018-04-02T02:46:14.963Z,92.48
2018-04-02T02:48:43.210Z,92.42
2018-04-02T02:51:12.227Z,92.40
2018-04-02T02:53:40.477Z,92.65
2018-04-02T02:56:08.755Z,92.45
2018-04-02T02:58:37.008Z,92.57
2018-04-02T03:01:06.040Z,92.44
2018-04-02T03:03:34.298Z,92.34
2018-04-02T03:06:02.562Z,92.50
2018-04-02T03:08:30.817Z,92.46
2018-04-02T03:11:00.578Z,92.42
2018-04-02T03:13:28.834Z,92.38
2018-04-02T03:15:57.122Z,92.20
2018-04-02T03:18:25.376Z,92.31
2018-04-02T03:20:54.390Z,92.51
2018-04-02T03:23:22.650Z,92.64
2018-04-02T03:25:51.675Z,92.75
2018-04-02T03:28:19.938Z,92.66
2018-04-02T03:30:48.186Z,92.34
2018-04-02T03:33:17.201Z,92.42
2018-04-02T03:35:45.453Z,92.17
2018-04-02T03:38:14.481Z,92.16
2018-04-02T03:40:42.731Z,92.06
2018-04-02T03:43:11.756Z,92.31
2018-04-02T03:45:40.007Z,92.31
2018-04-02T03:48:08.264Z,92.35
2018-04-02T03:50:37.277Z,92.24
2018-04-02T03:53:05.541Z,91.91
2018-04-02T03:55:34.550Z,91.64
2018-04-02T03:58:02.813Z,91.50
2018-04-02T04:00:31.839Z,91.50
2018-04-02T04:03:00.101Z,91.67
2018-04-02T04:05:28.384Z,91.57
2018-04-02T04:07:56.646Z,91.46
2018-04-02T04:10:24.894Z,91.35
2018-04-02T04:12:53.914Z,91.36
2018-04-02T04:15:22.179Z,91.58
2018-04-02T04:17:51.199Z,91.59
2018-04-02T04:20:19.453Z,91.67
2018-04-02T04:22:47.711Z,91.79
2018-04-02T04:25:15.963Z,91.98
2018-04-02T04:27:44.213Z,91.95
2018-04-02T04:30:12.479Z,91.64
2018-04-02T04:32:40.729Z,91.46
2018-04-02T04:35:09.753Z,91.46
2018-04-02T04:37:38.005Z,91.15
2018-04-02T04:40:06.261Z,91.63
2018-04-02T04:42:35.287Z,91.50
2018-04-02T04:45:03.538Z,91.83
2018-04-02T04:47:31.782Z,91.83
2018-04-02T04:50:00.047Z,91.76
2018-04-02T04:52:28.294Z,91.97
2018-04-02T04:54:56.565Z,92.02
2018-04-02T04:57:24.822Z,92.01
2018-04-02T04:59:53.078Z,91.95
2018-04-02T05:02:22.103Z,91.75
2018-04-02T05:04:50.357Z,91.41
2018-04-02T05:07:19.385Z,91.17
2018-04-02T05:09:47.634Z,91.12
2018-04-02T05:12:15.894Z,90.94
2018-04-02T05:14:44.910Z,90.90
2018-04-02T05:17:13.173Z,90.65
2018-04-02T05:19:42.195Z,90.63
2018-04-02T05:22:10.462Z,90.81
2018-04-02T05:24:38.713Z,90.92
2018-04-02T05:27:07.733Z,90.97
2018-04-02T05:29:35.982Z,91.15
2018-04-02T05:32:05.009Z,91.61
2018-04-02T05:34:33.260Z,91.50
2018-04-02T05:37:01.529Z,90.27
2018-04-02T05:39:30.536Z,89.15
2018-04-02T05:41:58.802Z,89.56
2018-04-02T05:44:27.070Z,89.04
2018-04-02T05:46:55.322Z,88.89
2018-04-02T05:49:23.582Z,89.19
2018-04-02T05:51:51.835Z,88.86
2018-04-02T05:54:20.086Z,89.42
2018-04-02T05:56:48.345Z,89.48
2018-04-02T05:59:17.368Z,89.84
2018-04-02T06:01:45.621Z,89.64
2018-04-02T06:04:13.875Z,89.84
2018-04-02T06:06:42.127Z,89.37
2018-04-02T06:09:10.385Z,89.21
2018-04-02T06:11:38.638Z,89.18
2018-04-02T06:14:06.902Z,89.33
2018-04-02T06:16:35.171Z,89.21
2018-04-02T06:19:03.419Z,89.46
2018-04-02T06:21:31.671Z,89.26
2018-04-02T06:23:59.930Z,89.73
2018-04-02T06:26:28.182Z,89.70
2018-04-02T06:28:57.202Z,89.48
2018-04-02T06:31:25.461Z,89.50
2018-04-02T06:33:53.725Z,89.27
2018-04-02T06:36:21.981Z,89.50
2018-04-02T06:38:51.009Z,89.53
2018-04-02T06:41:19.263Z,88.88
2018-04-02T06:43:48.277Z,88.52
2018-04-02T06:46:16.519Z,88.90
2018-04-02T06:48:44.773Z,88.98
2018-04-02T06:51:13.023Z,88.83
2018-04-02T06:53:41.273Z,87.85
2018-04-02T06:56:09.863Z,88.15
2018-04-02T06:58:38.106Z,87.94
2018-04-02T07:01:06.361Z,88.31
2018-04-02T07:03:34.614Z,87.48
2018-04-02T07:06:02.865Z,86.86
2018-04-02T07:08:31.115Z,86.59
2018-04-02T07:11:00.298Z,86.06
2018-04-02T07:13:28.505Z,85.31
2018-04-02T07:15:56.759Z,84.73
2018-04-02T07:18:25.772Z,85.20
2018-04-02T07:20:54.024Z,84.42
2018-04-02T07:23:23.034Z,84.18
2018-04-02T07:25:52.057Z,84.55
2018-04-02T07:28:20.305Z,84.20
2018-04-02T07:30:48.561Z,82.40
2018-04-02T07:33:17.578Z,82.28
2018-04-02T07:35:45.833Z,81.77
2018-04-02T07:38:14.841Z,81.57
2018-04-02T07:40:43.869Z,81.89
2018-04-02T07:43:12.117Z,80.81
2018-04-02T07:45:40.372Z,80.19
2018-04-02T07:48:09.390Z,80.12
2018-04-02T07:50:37.660Z,79.58
2018-04-02T07:53:06.665Z,78.94
2018-04-02T07:55:34.914Z,77.89
2018-04-02T07:58:03.926Z,77.69
2018-04-02T08:00:32.171Z,77.83
2018-04-02T08:03:00.491Z,75.91
2018-04-02T08:05:28.672Z,76.49
2018-04-02T08:07:56.923Z,76.75
2018-04-02T08:10:25.209Z,75.94
2018-04-02T08:12:53.458Z,75.26
2018-04-02T08:15:22.479Z,74.94
2018-04-02T08:17:50.735Z,75.29
2018-04-02T08:20:19.740Z,74.72
2018-04-02T08:22:47.990Z,73.90
2018-04-02T08:25:17.054Z,73.92
2018-04-02T08:27:46.014Z,73.21
2018-04-02T08:30:14.270Z,72.67
2018-04-02T08:32:42.573Z,71.56
2018-04-02T08:35:10.765Z,71.64
2018-04-02T08:37:39.032Z,71.98
2018-04-02T08:40:07.278Z,70.16
2018-04-02T08:42:35.513Z,67.67
2018-04-02T08:45:03.766Z,68.49
2018-04-02T08:47:32.010Z,69.43
2018-04-02T08:50:00.273Z,70.58
2018-04-02T08:52:28.534Z,69.89
2018-04-02T08:54:57.569Z,70.02
2018-04-02T08:57:25.809Z,69.43
2018-04-02T08:59:54.833Z,68.36
2018-04-02T09:02:23.077Z,66.38
2018-04-02T09:04:52.099Z,66.11
2018-04-02T09:07:20.334Z,66.03
2018-04-02T09:09:49.361Z,65.82
2018-04-02T09:12:17.598Z,64.78
2018-04-02T09:14:45.850Z,64.61
2018-04-02T09:17:14.093Z,63.93
2018-04-02T09:19:42.341Z,64.25
2018-04-02T09:22:11.346Z,62.94
2018-04-02T09:24:39.594Z,63.71
2018-04-02T09:27:07.833Z,61.24
2018-04-02T09:29:36.086Z,61.67
2018-04-02T09:32:04.366Z,58.92
2018-04-02T09:34:33.346Z,59.32
2018-04-02T09:37:01.593Z,60.36
2018-04-02T09:39:30.614Z,58.24
2018-04-02T09:41:58.856Z,58.41
2018-04-02T09:44:27.874Z,61.13
2018-04-02T09:46:56.127Z,60.88
2018-04-02T09:49:24.362Z,57.77
2018-04-02T09:51:52.607Z,57.55
2018-04-02T09:54:20.862Z,60.31
2018-04-02T09:56:49.873Z,57.99
2018-04-02T09:59:18.157Z,60.56
2018-04-02T10:01:46.372Z,58.51
2018-04-02T10:04:14.612Z,53.56
2018-04-02T10:06:42.852Z,50.91
2018-04-02T10:09:11.865Z,54.15
2018-04-02T10:11:40.117Z,54.44
2018-04-02T10:14:09.124Z,52.70
2018-04-02T10:16:37.381Z,55.06
2018-04-02T10:19:05.620Z,53.57
2018-04-02T10:21:33.875Z,53.42
2018-04-02T10:24:02.164Z,56.00
2018-04-02T10:26:31.135Z,56.74
2018-04-02T10:28:59.380Z,55.38
2018-04-02T10:31:28.422Z,54.16
2018-04-02T10:33:56.663Z,54.04
2018-04-02T10:36:25.674Z,54.07
2018-04-02T10:38:53.930Z,53.64
2018-04-02T10:41:22.947Z,53.15
2018-04-02T10:43:51.204Z,52.62
2018-04-02T10:46:19.452Z,52.19
2018-04-02T10:48:47.699Z,51.30
2018-04-02T10:51:15.940Z,50.65
2018-04-02T10:53:44.212Z,51.88
2018-04-02T10:56:12.461Z,51.02
2018-04-02T10:58:41.483Z,52.01
2018-04-02T11:01:09.729Z,53.49
2018-04-02T11:03:38.762Z,51.66
2018-04-02T11:06:07.018Z,50.47
2018-04-02T11:08:36.029Z,48.49
2018-04-02T11:11:04.282Z,49.51
2018-04-02T11:13:33.293Z,49.56
2018-04-02T11:16:01.533Z,50.73
2018-04-02T11:18:29.793Z,50.09
2018-04-02T11:20:58.034Z,46.05
2018-04-02T11:23:26.293Z,46.34
2018-04-02T11:25:54.536Z,47.39
2018-04-02T11:28:22.782Z,48.04
2018-04-02T11:30:51.032Z,48.38
2018-04-02T11:33:19.271Z,47.79
2018-04-02T11:35:48.296Z,46.77
2018-04-02T11:38:16.538Z,45.01
2018-04-02T11:40:45.553Z,45.15
2018-04-02T11:43:13.798Z,44.52
2018-04-02T11:45:42.049Z,43.94
2018-04-02T11:48:10.352Z,42.54
2018-04-02T11:50:38.537Z,41.66
2018-04-02T11:53:07.555Z,43.60
2018-04-02T11:55:35.809Z,44.12
2018-04-02T11:58:04.817Z,41.47
2018-04-02T12:00:33.070Z,40.62
2018-04-02T12:03:02.087Z,41.49
2018-04-02T12:05:30.350Z,42.19
2018-04-02T12:07:59.362Z,38.85
2018-04-02T12:10:27.605Z,41.33
2018-04-02T12:12:56.613Z,43.11
2018-04-02T12:15:25.634Z,41.07
2018-04-02T12:17:53.878Z,42.76
2018-04-02T12:20:22.900Z,43.44
2018-04-02T12:22:51.158Z,42.55
2018-04-02T12:25:19.404Z,40.89
2018-04-02T12:27:47.644Z,39.09
2018-04-02T12:30:15.900Z,40.57
2018-04-02T12:32:44.149Z,42.12
2018-04-02T12:35:13.162Z,41.98
2018-04-02T12:37:41.417Z,40.85
2018-04-02T12:40:10.438Z,43.77
2018-04-02T12:42:38.689Z,44.75
2018-04-02T12:45:07.701Z,45.32
2018-04-02T12:47:35.954Z,45.63
2018-04-02T12:50:04.958Z,44.70
2018-04-02T12:52:33.213Z,44.27
2018-04-02T12:55:02.226Z,44.48
2018-04-02T12:57:30.477Z,44.00
2018-04-02T12:59:59.491Z,42.92
2018-04-02T13:02:28.502Z,43.57
2018-04-02T13:04:56.745Z,43.71
2018-04-02T13:07:25.758Z,42.98
2018-04-02T13:09:54.004Z,43.79
2018-04-02T13:12:22.257Z,40.45
2018-04-02T13:14:50.505Z,41.74
2018-04-02T13:17:18.750Z,39.33
2018-04-02T13:19:47.759Z,38.32
2018-04-02T13:22:16.006Z,38.33
2018-04-02T13:24:45.059Z,37.94
2018-04-02T13:27:13.266Z,37.31
2018-04-02T13:29:41.515Z,38.23
2018-04-02T13:32:09.761Z,38.87
2018-04-02T13:34:38.010Z,39.71
2018-04-02T13:37:07.014Z,38.93
2018-04-02T13:39:35.275Z,39.78
2018-04-02T13:42:04.289Z,38.58
2018-04-02T13:44:32.545Z,39.02
2018-04-02T13:47:01.558Z,39.97
2018-04-02T13:49:29.814Z,37.76
2018-04-02T13:51:58.826Z,37.53
2018-04-02T13:54:27.071Z,39.11
2018-04-02T13:56:56.080Z,39.35
2018-04-02T13:59:25.101Z,37.85
2018-04-02T14:01:53.373Z,38.16
2018-04-02T14:04:21.616Z,38.31
2018-04-02T14:06:50.627Z,38.33
2018-04-02T14:09:18.881Z,39.51
2018-04-02T14:11:47.889Z,39.49
2018-04-02T14:14:16.142Z,37.57
2018-04-02T14:16:44.382Z,39.08
2018-04-02T14:19:12.626Z,39.37
2018-04-02T14:21:40.864Z,38.55
2018-04-02T14:24:09.121Z,37.32
2018-04-02T14:26:37.365Z,36.54
2018-04-02T14:29:05.609Z,36.59
2018-04-02T14:31:34.659Z,35.94
2018-04-02T14:34:02.861Z,35.88
2018-04-02T14:36:31.120Z,35.70
2018-04-02T14:38:59.414Z,35.50
2018-04-02T14:41:27.610Z,34.49
2018-04-02T14:43:55.857Z,34.49
2018-04-02T14:46:24.111Z,35.69
2018-04-02T14:48:52.345Z,34.39
2018-04-02T14:51:20.603Z,33.34
2018-04-02T14:53:49.617Z,33.96
2018-04-02T14:56:17.923Z,34.27
2018-04-02T14:58:46.109Z,35.02
2018-04-02T15:01:14.358Z,36.08
2018-04-02T15:03:42.606Z,36.48
2018-04-02T15:06:11.573Z,35.16
2018-04-02T15:08:39.817Z,35.83
2018-04-02T15:11:08.072Z,34.22
2018-04-02T15:13:36.310Z,34.13
2018-04-02T15:16:05.330Z,34.88
2018-04-02T15:18:34.390Z,34.94
2018-04-02T15:21:03.408Z,34.34
2018-04-02T15:23:31.649Z,33.26
2018-04-02T15:25:59.881Z,32.79
2018-04-02T15:28:28.132Z,33.66
2018-04-02T15:30:56.373Z,33.53
2018-04-02T15:33:24.624Z,34.72
2018-04-02T15:35:52.866Z,36.09
2018-04-02T15:38:21.116Z,35.64
2018-04-02T15:40:50.142Z,35.74
2018-04-02T15:43:18.391Z,36.13
2018-04-02T15:45:47.445Z,36.36
2018-04-02T15:48:15.702Z,36.32
2018-04-02T15:50:43.941Z,35.04
2018-04-02T15:53:12.197Z,34.18
2018-04-02T15:55:41.204Z,33.73
2018-04-02T15:58:10.227Z,34.01
2018-04-02T16:00:38.476Z,34.01
2018-04-02T16:03:07.550Z,34.21
2018-04-02T16:05:35.726Z,34.05
2018-04-02T16:08:03.989Z,34.78
2018-04-02T16:10:32.224Z,34.70
2018-04-02T16:13:00.477Z,34.26
2018-04-02T16:15:28.729Z,34.44
2018-04-02T16:17:57.734Z,34.63
2018-04-02T16:20:26.746Z,34.43
2018-04-02T16:22:54.985Z,34.03
2018-04-02T16:25:23.233Z,33.86
2018-04-02T16:27:51.485Z,33.49
2018-04-02T16:30:19.730Z,33.68
2018-04-02T16:32:48.773Z,34.02
2018-04-02T16:35:17.030Z,33.93
2018-04-02T16:37:45.274Z,33.92
2018-04-02T16:40:14.288Z,33.04
2018-04-02T16:42:42.533Z,34.11
2018-04-02T16:45:11.545Z,33.03
2018-04-02T16:47:39.789Z,33.92
2018-04-02T16:50:08.041Z,34.16
2018-04-02T16:52:36.277Z,34.10
2018-04-02T16:55:04.539Z,34.98
2018-04-02T16:57:33.545Z,34.28
2018-04-02T17:00:01.794Z,34.95
2018-04-02T17:02:30.810Z,35.27
2018-04-02T17:04:59.059Z,35.41
2018-04-02T17:07:27.297Z,35.02
2018-04-02T17:09:55.554Z,35.51
2018-04-02T17:12:23.785Z,36.18
2018-04-02T17:14:52.805Z,36.41
2018-04-02T17:17:21.054Z,37.14
2018-04-02T17:19:50.067Z,37.91
2018-04-02T17:22:18.318Z,37.39
2018-04-02T17:24:47.333Z,38.31
2018-04-02T17:27:15.593Z,38.64
2018-04-02T17:29:44.601Z,39.19
2018-04-02T17:32:12.859Z,39.76
2018-04-02T17:34:41.866Z,39.61
2018-04-02T17:37:10.876Z,40.19
2018-04-02T17:39:39.129Z,40.52
2018-04-02T17:42:08.154Z,40.47
2018-04-02T17:47:11.028Z,41.02
2018-04-02T17:49:40.046Z,41.04
2018-04-02T17:52:08.297Z,41.45
2018-04-02T17:54:37.309Z,41.67
2018-04-02T17:57:05.560Z,41.87
2018-04-02T17:59:33.817Z,42.25
2018-04-02T18:02:02.079Z,42.14
2018-04-02T18:04:30.322Z,42.04
2018-04-02T18:06:58.577Z,42.17
2018-04-02T18:09:26.824Z,42.34
2018-04-02T18:11:55.089Z,42.62
2018-04-02T18:14:23.339Z,43.18
2018-04-02T18:16:51.598Z,43.08
2018-04-02T18:19:19.841Z,43.24
2018-04-02T18:21:48.861Z,43.15
2018-04-02T18:24:17.113Z,43.18
2018-04-02T18:26:45.395Z,43.73
2018-04-02T18:29:13.643Z,43.83
2018-04-02T18:31:41.894Z,44.22
2018-04-02T18:34:10.141Z,44.42
2018-04-02T18:36:38.390Z,44.91
2018-04-02T18:39:07.406Z,45.46
2018-04-02T18:41:35.650Z,45.75
2018-04-02T18:44:04.674Z,45.89
2018-04-02T18:46:32.927Z,46.55
2018-04-02T18:49:01.953Z,46.71
2018-04-02T18:51:30.198Z,46.39
2018-04-02T18:53:58.454Z,46.07
2018-04-02T18:56:27.465Z,46.23
2018-04-02T18:58:55.717Z,46.45
2018-04-02T19:01:24.736Z,47.16
2018-04-02T19:03:53.013Z,47.20
2018-04-02T19:06:21.266Z,47.92
2018-04-02T19:08:49.513Z,47.51
2018-04-02T19:11:17.773Z,48.38
2018-04-02T19:13:46.016Z,48.23
2018-04-02T19:16:14.274Z,48.15
2018-04-02T19:18:43.297Z,48.36
2018-04-02T19:21:11.560Z,48.56
2018-04-02T19:23:39.806Z,48.38
2018-04-02T19:26:08.060Z,47.78
2018-04-02T19:28:36.313Z,48.09
2018-04-02T19:31:04.574Z,48.22
2018-04-02T19:33:32.815Z,47.88
2018-04-02T19:36:01.843Z,48.33
2018-04-02T19:38:30.107Z,48.20
2018-04-02T19:40:58.378Z,48.49
2018-04-02T19:43:27.385Z,48.56
2018-04-02T19:45:55.650Z,48.40
2018-04-02T19:48:24.656Z,48.42
2018-04-02T19:50:52.918Z,48.17
2018-04-02T19:53:21.165Z,48.99
2018-04-02T19:55:49.422Z,48.70
2018-04-02T19:58:17.669Z,48.93
2018-04-02T20:00:45.934Z,48.92
2018-04-02T20:03:14.190Z,48.91
2018-04-02T20:05:43.217Z,48.89
2018-04-02T20:08:11.468Z,49.43
2018-04-02T20:10:39.715Z,49.02
2018-04-02T20:13:07.970Z,49.11
2018-04-02T20:15:36.227Z,49.17
2018-04-02T20:18:04.486Z,48.88
2018-04-02T20:20:33.612Z,49.09
2018-04-02T20:23:01.896Z,48.99
2018-04-02T20:25:30.851Z,48.98
2018-04-02T20:27:59.117Z,49.18
2018-04-02T20:30:27.376Z,49.17
2018-04-02T20:32:56.407Z,49.24
2018-04-02T20:35:24.666Z,49.57
2018-04-02T20:37:52.929Z,49.55
2018-04-02T20:40:21.182Z,49.81
2018-04-02T20:42:50.210Z,49.79
2018-04-02T20:45:18.456Z,49.92
2018-04-02T20:47:47.481Z,49.65
2018-04-02T20:50:15.733Z,50.05
2018-04-02T20:52:44.766Z,50.54
2018-04-02T20:55:13.021Z,50.56
2018-04-02T20:57:41.278Z,51.05
2018-04-02T21:00:10.339Z,51.06
2018-04-02T21:02:38.562Z,51.15
2018-04-02T21:05:06.815Z,51.50
2018-04-02T21:07:35.840Z,51.17
2018-04-02T21:10:04.097Z,51.00
2018-04-02T21:12:32.358Z,50.28
2018-04-02T21:15:01.379Z,50.61
2018-04-02T21:17:29.638Z,50.77
2018-04-02T21:19:58.661Z,50.70
2018-04-02T21:22:26.922Z,50.83
2018-04-02T21:24:55.177Z,50.64
2018-04-02T21:27:24.198Z,50.73
2018-04-02T21:29:52.501Z,50.76
2018-04-02T21:32:20.721Z,50.81
2018-04-02T21:34:49.745Z,50.91
2018-04-02T21:37:18.004Z,51.13
2018-04-02T21:39:46.284Z,50.87
2018-04-02T21:42:14.545Z,51.48
2018-04-02T21:44:43.566Z,51.14
2018-04-02T21:47:11.825Z,50.53
2018-04-02T21:49:40.097Z,50.34
2018-04-02T21:52:09.113Z,50.60
2018-04-02T21:54:37.382Z,50.96
2018-04-02T21:57:05.630Z,51.86
2018-04-02T21:59:34.670Z,50.80
2018-04-02T22:02:02.929Z,50.98
2018-04-02T22:04:31.194Z,51.58
2018-04-02T22:07:06.309Z,52.36
2018-04-02T22:09:34.572Z,53.02
2018-04-02T22:12:02.843Z,53.54
2018-04-02T22:14:31.101Z,53.58
2018-04-02T22:16:59.353Z,52.21
2018-04-02T22:19:27.611Z,51.61
2018-04-02T22:21:56.626Z,51.21
2018-04-02T22:24:24.909Z,51.16
2018-04-02T22:26:53.154Z,52.11
2018-04-02T22:29:22.177Z,52.41
2018-04-02T22:31:50.437Z,52.34
2018-04-02T22:34:19.516Z,54.19
2018-04-02T22:36:48.546Z,50.11
2018-04-02T22:39:16.788Z,50.28
2018-04-02T22:41:45.816Z,50.67
2018-04-02T22:44:14.069Z,51.50
2018-04-02T22:46:43.189Z,52.10
2018-04-02T22:49:11.438Z,49.14
2018-04-02T22:51:40.470Z,51.98
2018-04-02T22:54:08.769Z,53.95
2018-04-02T22:56:37.027Z,53.11
2018-04-02T22:59:05.282Z,52.81
2018-04-02T23:01:34.297Z,52.81
2018-04-02T23:04:02.545Z,52.65
2018-04-02T23:06:31.566Z,52.44
2018-04-02T23:08:59.814Z,52.52
2018-04-02T23:11:28.838Z,53.04
2018-04-02T23:13:57.085Z,51.56
2018-04-02T23:16:26.094Z,54.02
2018-04-02T23:18:54.342Z,54.58
2018-04-02T23:21:23.350Z,53.91
2018-04-02T23:23:51.599Z,54.76
2018-04-02T23:26:19.846Z,53.88
2018-04-02T23:28:48.102Z,54.31
2018-04-02T23:31:16.349Z,53.15
2018-04-02T23:33:45.374Z,52.95
2018-04-02T23:36:13.622Z,53.00
2018-04-02T23:38:41.874Z,52.43
2018-04-02T23:41:10.116Z,52.57
2018-04-02T23:43:38.380Z,52.67
2018-04-02T23:46:06.626Z,53.01
2018-04-02T23:48:34.877Z,53.05
2018-04-02T23:51:03.913Z,53.94
2018-04-02T23:53:32.264Z,53.13
2018-04-02T23:56:00.614Z,53.70
2018-04-02T23:58:29.730Z,54.13
